Time;durP1;ratioP1;P1;durP2;ratioP2;P2;SDS_P1;SDS_P2;PMS_P1;PMS_P2;Temp;Humidity;BMP_temperature;BMP_pressure;BME280_temperature;BME280_humidity;BME280_pressure;Samples;Min_cycle;Max_cycle;Signal;HPM_P1;HPM_P2
2022/08/03 00:00:05;;;;;;;3.70;3.10;;;25.30;36.80;;;;;;5014744;28;20170;-42
2022/08/03 00:02:31;;;;;;;5.50;3.67;;;25.30;36.90;;;;;;5014566;28;20178;-44
2022/08/03 00:04:57;;;;;;;3.73;2.93;;;25.20;37.10;;;;;;5015716;28;20429;-44
2022/08/03 00:07:22;;;;;;;4.70;3.53;;;25.20;37.20;;;;;;5015779;28;20726;-44
2022/08/03 00:09:49;;;;;;;4.03;3.50;;;25.10;37.20;;;;;;5015299;28;20409;-44
2022/08/03 00:12:15;;;;;;;6.10;3.10;;;25.10;37.30;;;;;;5016011;28;20531;-43
2022/08/03 00:14:41;;;;;;;3.80;3.13;;;25.10;37.30;;;;;;5014966;28;20461;-43
2022/08/03 00:17:07;;;;;;;3.70;3.00;;;25.10;37.30;;;;;;5015315;28;20417;-43
2022/08/03 00:19:33;;;;;;;4.17;3.20;;;25.10;37.30;;;;;;5015608;28;20410;-43
2022/08/03 00:21:58;;;;;;;4.10;3.10;;;25.00;37.40;;;;;;5015594;28;20405;-44
2022/08/03 00:24:25;;;;;;;5.93;3.60;;;25.00;37.50;;;;;;5014396;28;20488;-44
2022/08/03 00:26:51;;;;;;;4.13;3.73;;;24.90;37.50;;;;;;4997795;28;20193;-40
2022/08/03 00:29:16;;;;;;;5.40;2.80;;;24.90;37.60;;;;;;5015128;28;20441;-44
2022/08/03 00:31:42;;;;;;;4.30;2.90;;;24.90;37.50;;;;;;5015398;28;20413;-43
2022/08/03 00:34:08;;;;;;;3.23;2.67;;;24.80;37.70;;;;;;5014092;28;20203;-43
2022/08/03 00:36:34;;;;;;;3.70;3.30;;;24.80;37.70;;;;;;5015295;28;20298;-43
2022/08/03 00:38:59;;;;;;;4.40;3.20;;;24.70;37.70;;;;;;5014876;28;20649;-43
2022/08/03 00:41:25;;;;;;;4.67;3.30;;;24.70;37.70;;;;;;5015820;28;20600;-42
2022/08/03 00:43:51;;;;;;;4.17;3.23;;;24.70;37.80;;;;;;5015128;28;20429;-43
2022/08/03 00:46:17;;;;;;;4.20;3.70;;;24.70;37.80;;;;;;5014820;28;20496;-42
2022/08/03 00:48:43;;;;;;;4.20;3.00;;;24.70;37.80;;;;;;5015379;28;20178;-44
2022/08/03 00:51:09;;;;;;;4.23;3.43;;;24.70;37.90;;;;;;5015151;28;20932;-44
2022/08/03 00:53:36;;;;;;;3.07;2.77;;;24.60;37.80;;;;;;5016012;28;20602;-43
2022/08/03 00:56:01;;;;;;;3.83;3.17;;;24.60;37.90;;;;;;5014993;28;20472;-44
2022/08/03 00:58:27;;;;;;;4.90;2.97;;;24.60;37.90;;;;;;5014809;28;20402;-41
2022/08/03 01:00:53;;;;;;;4.40;3.40;;;24.60;38.00;;;;;;5015859;28;20314;-43
2022/08/03 01:03:19;;;;;;;4.23;3.17;;;24.60;38.00;;;;;;5014618;28;20433;-41
2022/08/03 01:05:50;;;;;;;4.27;3.00;;;24.50;38.00;;;;;;5014572;28;20302;-43
2022/08/03 01:08:53;;;;;;;5.50;3.37;;;24.50;38.10;;;;;;5015681;28;20170;-43
2022/08/03 01:11:49;;;;;;;4.17;3.50;;;24.50;38.40;;;;;;5015770;28;20500;-43
2022/08/03 01:14:23;;;;;;;4.80;3.77;;;24.40;39.00;;;;;;5014473;28;20817;-42
2022/08/03 01:17:01;;;;;;;3.80;2.93;;;24.30;38.40;;;;;;5024911;23;20497;-44
2022/08/03 01:19:47;;;;;;;3.90;2.97;;;24.30;38.50;;;;;;5013210;28;20394;-40
2022/08/03 01:22:57;;;;;;;3.77;3.00;;;24.20;38.40;;;;;;5013284;28;20889;-42
2022/08/03 01:25:51;;;;;;;4.33;3.70;;;24.20;38.60;;;;;;4957132;28;20482;-41
2022/08/03 01:28:43;;;;;;;5.40;3.57;;;24.10;38.70;;;;;;4993537;28;20382;-42
2022/08/03 01:31:12;;;;;;;4.50;3.90;;;24.00;38.70;;;;;;4993841;28;20449;-41
2022/08/03 01:33:45;;;;;;;4.43;3.50;;;24.00;38.80;;;;;;4993372;28;20516;-42
2022/08/03 01:36:20;;;;;;;4.20;3.30;;;24.00;38.90;;;;;;4993307;28;20426;-42
2022/08/03 01:38:52;;;;;;;4.33;3.67;;;23.90;39.00;;;;;;4993378;28;20387;-43
2022/08/03 01:41:23;;;;;;;4.80;3.60;;;23.90;39.00;;;;;;4993269;28;20542;-44
2022/08/03 01:43:50;;;;;;;4.07;3.67;;;23.90;39.00;;;;;;4992780;28;20422;-42
2022/08/03 01:46:19;;;;;;;5.10;3.57;;;23.90;39.20;;;;;;4992787;28;20434;-43
2022/08/03 01:48:47;;;;;;;5.13;4.00;;;23.90;39.20;;;;;;4993042;28;20498;-43
2022/08/03 01:51:15;;;;;;;4.20;3.63;;;23.80;39.10;;;;;;4993210;28;20415;-42
2022/08/03 01:53:42;;;;;;;4.47;3.77;;;23.80;39.10;;;;;;4992995;28;20543;-42
2022/08/03 01:56:09;;;;;;;4.10;3.70;;;23.90;39.20;;;;;;4992743;28;20427;-42
2022/08/03 01:58:35;;;;;;;4.23;3.33;;;23.90;39.20;;;;;;4992976;28;20402;-44
2022/08/03 02:01:03;;;;;;;4.63;4.07;;;23.80;39.10;;;;;;4992823;28;20413;-43
2022/08/03 02:03:32;;;;;;;4.73;3.53;;;23.80;39.30;;;;;;4993091;28;20434;-42
2022/08/03 02:06:00;;;;;;;5.73;3.20;;;23.80;39.40;;;;;;4992604;28;20430;-42
2022/08/03 02:08:27;;;;;;;5.73;4.40;;;23.70;39.50;;;;;;4992874;28;20763;-42
2022/08/03 02:10:56;;;;;;;4.80;4.30;;;23.70;39.50;;;;;;4992883;28;20898;-42
2022/08/03 02:13:25;;;;;;;4.50;3.70;;;23.70;39.60;;;;;;4992524;28;20421;-43
2022/08/03 02:15:52;;;;;;;5.30;4.33;;;23.70;39.70;;;;;;4992368;28;20442;-42
2022/08/03 02:18:19;;;;;;;4.17;3.40;;;23.70;39.60;;;;;;4992744;28;20406;-42
2022/08/03 02:20:46;;;;;;;10.23;3.40;;;23.60;39.70;;;;;;4992726;28;20467;-42
2022/08/03 02:23:15;;;;;;;6.07;3.47;;;23.60;39.80;;;;;;4992635;28;20810;-41
2022/08/03 02:25:45;;;;;;;4.93;4.00;;;23.60;39.70;;;;;;4992649;28;20426;-42
2022/08/03 02:28:16;;;;;;;4.67;3.80;;;23.60;39.70;;;;;;4992810;28;20402;-42
2022/08/03 02:30:45;;;;;;;5.40;3.80;;;23.50;39.90;;;;;;4992715;28;20383;-41
2022/08/03 02:33:17;;;;;;;4.30;3.80;;;23.50;39.90;;;;;;4992428;28;20960;-41
2022/08/03 02:35:43;;;;;;;7.30;4.47;;;23.50;39.90;;;;;;4992335;28;20941;-42
2022/08/03 02:38:12;;;;;;;5.77;4.70;;;23.40;39.90;;;;;;4992559;28;20798;-44
2022/08/03 02:40:40;;;;;;;6.73;5.37;;;23.40;40.00;;;;;;4992519;28;20489;-44
2022/08/03 02:43:15;;;;;;;5.70;4.30;;;23.40;40.20;;;;;;4992542;28;20473;-42
2022/08/03 02:45:44;;;;;;;6.47;4.60;;;23.40;40.40;;;;;;4992539;28;20436;-41
2022/08/03 02:48:11;;;;;;;4.40;4.00;;;23.40;40.50;;;;;;4992431;28;20441;-44
2022/08/03 02:50:38;;;;;;;5.63;4.87;;;23.30;40.60;;;;;;4992455;28;20431;-43
2022/08/03 02:53:05;;;;;;;4.90;4.10;;;23.30;40.70;;;;;;4992345;28;20405;-44
2022/08/03 02:55:34;;;;;;;7.00;4.40;;;23.30;40.60;;;;;;4994676;28;20468;-42
2022/08/03 02:58:02;;;;;;;6.50;4.80;;;23.30;40.50;;;;;;4996223;28;20403;-44
2022/08/03 03:00:31;;;;;;;5.10;4.17;;;23.30;40.50;;;;;;4996197;28;20406;-42
2022/08/03 03:02:58;;;;;;;6.10;4.40;;;23.30;40.50;;;;;;4996198;28;20490;-43
2022/08/03 03:05:25;;;;;;;8.40;4.90;;;23.20;40.50;;;;;;4996014;28;20430;-43
2022/08/03 03:07:53;;;;;;;5.73;4.83;;;23.30;40.60;;;;;;4995969;28;20410;-43
2022/08/03 03:10:21;;;;;;;5.77;4.63;;;23.20;40.60;;;;;;4996114;28;20422;-42
2022/08/03 03:12:50;;;;;;;6.10;4.97;;;23.20;40.60;;;;;;4995967;28;20410;-42
2022/08/03 03:15:16;;;;;;;6.10;4.37;;;23.20;40.70;;;;;;4995878;28;21084;-44
2022/08/03 03:17:44;;;;;;;5.40;4.50;;;23.20;40.70;;;;;;4995626;28;20427;-43
2022/08/03 03:20:11;;;;;;;5.50;5.00;;;23.20;40.70;;;;;;4995835;28;20453;-42
2022/08/03 03:22:37;;;;;;;5.30;4.80;;;23.10;40.80;;;;;;4996226;28;20395;-43
2022/08/03 03:25:05;;;;;;;7.03;4.73;;;23.10;41.00;;;;;;4996268;28;20443;-43
2022/08/03 03:27:32;;;;;;;4.40;4.00;;;23.00;41.00;;;;;;4995896;28;20454;-42
2022/08/03 03:29:59;;;;;;;6.70;5.03;;;23.00;41.10;;;;;;4996330;28;20481;-42
2022/08/03 03:32:29;;;;;;;7.70;4.90;;;23.00;41.10;;;;;;4996270;28;20415;-43
2022/08/03 03:34:58;;;;;;;7.20;6.00;;;23.00;41.00;;;;;;4994868;28;20442;-44
2022/08/03 03:37:25;;;;;;;6.50;5.00;;;23.00;41.10;;;;;;4995860;28;20497;-43
2022/08/03 03:39:53;;;;;;;5.97;5.37;;;23.00;41.10;;;;;;4996204;28;20957;-42
2022/08/03 03:42:19;;;;;;;6.37;5.07;;;23.00;41.20;;;;;;4996380;28;20407;-44
2022/08/03 03:44:45;;;;;;;7.27;5.47;;;23.00;41.30;;;;;;4995520;28;20422;-43
2022/08/03 03:47:11;;;;;;;7.33;4.53;;;22.90;41.30;;;;;;4995024;28;20461;-42
2022/08/03 03:49:37;;;;;;;5.80;5.20;;;22.90;41.40;;;;;;4995398;28;20195;-44
2022/08/03 03:52:04;;;;;;;7.60;4.60;;;22.90;41.40;;;;;;4995485;28;20459;-42
2022/08/03 03:54:43;;;;;;;9.63;6.00;;;22.90;41.40;;;;;;4995320;28;20446;-43
2022/08/03 03:57:10;;;;;;;9.57;5.90;;;22.90;41.60;;;;;;4994878;28;20426;-43
2022/08/03 03:59:40;;;;;;;5.80;5.10;;;22.90;41.70;;;;;;4995095;28;20418;-42
2022/08/03 04:02:07;;;;;;;9.67;5.30;;;22.90;41.80;;;;;;4995317;28;20413;-42
2022/08/03 04:12:58;;;;;;;10.67;7.57;;;22.90;41.80;;;;;;4995244;28;20949;-43
2022/08/03 04:15:26;;;;;;;7.70;5.47;;;22.90;41.90;;;;;;4994531;28;20565;-44
2022/08/03 04:17:54;;;;;;;5.73;5.00;;;22.90;42.00;;;;;;4994614;28;20901;-42
2022/08/03 04:20:21;;;;;;;7.83;5.70;;;23.00;42.00;;;;;;4994698;28;20411;-43
2022/08/03 04:22:50;;;;;;;8.00;5.80;;;23.00;42.00;;;;;;4994574;28;20407;-41
2022/08/03 04:25:18;;;;;;;7.37;5.70;;;23.00;42.10;;;;;;4994526;28;20438;-42
2022/08/03 04:27:48;;;;;;;6.47;5.63;;;23.00;42.10;;;;;;4994364;28;20414;-43
2022/08/03 04:30:14;;;;;;;9.23;6.57;;;23.10;42.30;;;;;;5009234;28;20417;-43
2022/08/03 04:32:44;;;;;;;9.10;6.63;;;23.10;42.20;;;;;;4994553;28;20756;-42
2022/08/03 04:35:09;;;;;;;9.67;6.33;;;23.10;42.30;;;;;;4994230;28;20457;-44
2022/08/03 04:37:42;;;;;;;10.67;5.30;;;23.20;42.30;;;;;;4994303;28;20440;-42
2022/08/03 04:40:13;;;;;;;16.30;5.60;;;23.20;42.40;;;;;;4994264;28;20203;-43
2022/08/03 04:42:40;;;;;;;8.07;6.43;;;23.30;42.50;;;;;;4994348;28;20379;-43
2022/08/03 04:45:10;;;;;;;7.13;6.27;;;23.30;42.40;;;;;;4992924;28;20771;-43
2022/08/03 04:47:37;;;;;;;5.63;5.10;;;23.40;42.20;;;;;;4993989;28;20498;-42
2022/08/03 04:50:05;;;;;;;6.80;6.10;;;23.40;42.10;;;;;;4994240;28;20827;-43
2022/08/03 04:52:32;;;;;;;6.33;5.73;;;23.50;42.00;;;;;;4994136;28;20410;-44
2022/08/03 04:54:57;;;;;;;7.50;6.80;;;23.70;42.10;;;;;;4993911;28;20536;-43
2022/08/03 04:57:23;;;;;;;5.67;5.10;;;23.70;41.90;;;;;;4993806;28;20416;-43
2022/08/03 04:59:53;;;;;;;6.67;5.97;;;23.80;41.70;;;;;;4994022;28;20167;-43
2022/08/03 05:02:20;;;;;;;7.10;6.40;;;23.90;41.60;;;;;;4994165;28;20183;-43
2022/08/03 05:04:46;;;;;;;6.70;6.00;;;24.00;41.70;;;;;;4993881;28;20909;-42
2022/08/03 05:07:16;;;;;;;6.20;5.27;;;24.10;41.60;;;;;;4993543;28;20941;-43
2022/08/03 05:09:43;;;;;;;6.20;5.57;;;24.10;41.70;;;;;;4993784;28;20442;-42
2022/08/03 05:12:09;;;;;;;7.47;5.77;;;24.20;41.50;;;;;;4993813;28;20485;-42
2022/08/03 05:14:37;;;;;;;6.20;5.60;;;24.30;41.60;;;;;;4993597;28;20454;-43
2022/08/03 05:17:04;;;;;;;5.90;5.30;;;24.40;41.40;;;;;;4992511;28;20469;-44
2022/08/03 05:19:30;;;;;;;7.80;5.83;;;24.50;41.40;;;;;;4993631;28;20430;-42
2022/08/03 05:21:57;;;;;;;6.83;5.33;;;24.50;41.30;;;;;;4993545;28;20751;-41
2022/08/03 05:24:22;;;;;;;9.00;5.20;;;24.60;41.40;;;;;;4993782;28;20459;-41
2022/08/03 05:26:48;;;;;;;6.93;6.13;;;24.60;41.40;;;;;;4993222;28;20439;-41
2022/08/03 05:29:14;;;;;;;8.20;5.10;;;24.70;41.30;;;;;;4993364;28;20172;-42
2022/08/03 05:31:40;;;;;;;9.00;5.10;;;24.80;40.90;;;;;;4993409;28;20175;-43
2022/08/03 05:34:05;;;;;;;9.80;5.80;;;24.90;40.90;;;;;;4993213;28;20477;-43
2022/08/03 05:36:31;;;;;;;7.53;5.50;;;24.90;40.70;;;;;;4993116;28;20195;-42
2022/08/03 05:38:57;;;;;;;10.40;4.60;;;25.00;40.60;;;;;;4993537;28;20172;-42
2022/08/03 05:41:23;;;;;;;8.03;5.40;;;25.00;40.60;;;;;;4991924;28;20175;-43
2022/08/03 05:43:49;;;;;;;7.40;6.20;;;25.10;40.20;;;;;;4993123;28;20172;-44
2022/08/03 05:46:15;;;;;;;6.00;5.13;;;25.10;40.10;;;;;;4993041;28;20199;-42
2022/08/03 05:48:41;;;;;;;6.13;4.83;;;25.20;39.90;;;;;;4993111;28;20402;-42
2022/08/03 05:51:09;;;;;;;6.30;4.60;;;25.20;39.40;;;;;;4993109;28;20254;-42
2022/08/03 05:53:36;;;;;;;6.20;5.37;;;25.20;39.50;;;;;;4993114;28;20481;-42
2022/08/03 05:56:02;;;;;;;5.13;4.50;;;25.30;39.60;;;;;;4992716;28;20454;-44
2022/08/03 05:58:28;;;;;;;5.60;4.13;;;25.40;39.60;;;;;;4992854;28;20417;-43
2022/08/03 06:00:54;;;;;;;4.97;4.40;;;25.50;39.50;;;;;;4993076;28;20523;-43
2022/08/03 06:03:20;;;;;;;4.10;3.60;;;25.60;39.10;;;;;;4992899;28;20426;-42
2022/08/03 06:05:46;;;;;;;5.50;4.00;;;25.70;39.00;;;;;;4992573;28;20191;-42
2022/08/03 06:08:12;;;;;;;8.00;4.13;;;25.80;38.80;;;;;;4992734;28;20414;-43
2022/08/03 06:10:38;;;;;;;5.17;4.47;;;25.90;39.00;;;;;;4992878;28;20435;-42
2022/08/03 06:13:04;;;;;;;6.77;3.67;;;26.10;39.00;;;;;;4992938;28;20175;-42
2022/08/03 06:15:32;;;;;;;5.40;3.80;;;26.10;38.30;;;;;;4992269;28;20215;-43
2022/08/03 06:17:58;;;;;;;5.80;4.10;;;26.20;38.60;;;;;;4992822;28;20410;-43
2022/08/03 06:20:24;;;;;;;5.20;4.00;;;26.30;38.20;;;;;;4992658;28;20744;-41
2022/08/03 06:22:50;;;;;;;5.30;4.30;;;26.40;38.60;;;;;;4992886;28;20481;-42
2022/08/03 06:25:16;;;;;;;4.83;4.10;;;26.60;38.20;;;;;;4992519;28;21034;-43
2022/08/03 06:27:42;;;;;;;4.43;3.43;;;26.60;37.70;;;;;;4992602;28;20425;-43
2022/08/03 06:30:09;;;;;;;4.53;4.13;;;26.70;37.70;;;;;;4996430;28;20179;-43
2022/08/03 06:32:36;;;;;;;3.93;3.20;;;26.80;36.90;;;;;;4996963;28;20406;-43
2022/08/03 06:35:03;;;;;;;4.73;3.57;;;26.80;36.80;;;;;;4996692;28;20458;-42
2022/08/03 06:37:29;;;;;;;4.70;3.60;;;26.90;37.10;;;;;;4996679;28;20822;-43
2022/08/03 06:39:55;;;;;;;4.30;3.40;;;27.00;37.70;;;;;;4996644;28;20914;-43
2022/08/03 06:42:21;;;;;;;5.73;4.37;;;27.10;37.40;;;;;;4996454;28;20421;-41
2022/08/03 06:44:46;;;;;;;4.50;3.67;;;27.20;37.10;;;;;;4996676;28;20179;-42
2022/08/03 06:47:12;;;;;;;3.70;3.37;;;27.30;36.40;;;;;;4996003;28;20866;-43
2022/08/03 06:49:39;;;;;;;5.60;3.57;;;27.40;35.90;;;;;;4996414;28;20179;-43
2022/08/03 06:52:05;;;;;;;5.00;4.00;;;27.40;36.50;;;;;;4996405;28;20186;-43
2022/08/03 06:54:31;;;;;;;3.90;3.50;;;27.50;35.90;;;;;;4996126;28;20446;-43
2022/08/03 06:56:57;;;;;;;4.60;3.30;;;27.60;35.70;;;;;;4996028;28;20206;-43
2022/08/03 06:59:22;;;;;;;4.77;3.33;;;27.60;35.20;;;;;;4996402;28;20163;-42
2022/08/03 07:01:48;;;;;;;5.43;3.30;;;27.60;35.50;;;;;;4996051;28;20171;-42
2022/08/03 07:04:14;;;;;;;3.97;2.90;;;27.80;35.40;;;;;;4996031;28;20303;-42
2022/08/03 07:06:39;;;;;;;4.93;3.07;;;27.90;35.50;;;;;;4995834;28;20245;-43
2022/08/03 07:09:05;;;;;;;3.90;2.77;;;28.00;36.10;;;;;;4996041;28;20210;-42
2022/08/03 07:11:31;;;;;;;5.97;4.63;;;28.20;35.40;;;;;;4995919;28;20202;-43
2022/08/03 07:13:57;;;;;;;3.47;2.40;;;28.20;34.70;;;;;;4995904;28;20231;-43
2022/08/03 07:16:22;;;;;;;4.90;3.60;;;28.30;33.60;;;;;;4995491;28;20206;-43
2022/08/03 07:18:48;;;;;;;4.27;3.27;;;28.40;34.50;;;;;;4995963;28;20651;-43
2022/08/03 07:21:15;;;;;;;6.60;3.57;;;28.50;34.30;;;;;;4996049;28;20171;-43
2022/08/03 07:23:41;;;;;;;4.50;2.93;;;28.60;35.10;;;;;;4995762;28;20179;-41
2022/08/03 07:26:07;;;;;;;5.97;3.43;;;28.80;35.30;;;;;;4995446;28;20433;-43
2022/08/03 07:28:33;;;;;;;5.57;3.67;;;29.00;35.70;;;;;;4995871;28;20186;-42
2022/08/03 07:30:59;;;;;;;4.77;4.20;;;29.10;35.10;;;;;;4995614;28;20410;-41
2022/08/03 07:33:25;;;;;;;4.40;3.10;;;29.20;36.30;;;;;;4995556;28;20662;-43
2022/08/03 07:35:51;;;;;;;6.40;3.27;;;29.30;34.80;;;;;;4995384;28;20426;-43
2022/08/03 07:38:16;;;;;;;3.43;3.03;;;29.50;34.80;;;;;;4995760;28;20732;-43
2022/08/03 07:40:42;;;;;;;4.10;3.30;;;29.60;34.20;;;;;;4994716;28;20170;-43
2022/08/03 07:43:08;;;;;;;3.93;3.10;;;29.60;34.60;;;;;;4995826;28;20175;-43
2022/08/03 07:45:34;;;;;;;3.60;2.63;;;29.80;34.30;;;;;;4995404;28;20210;-43
2022/08/03 07:48:00;;;;;;;3.30;2.93;;;29.90;33.50;;;;;;4995789;28;20668;-42
2022/08/03 07:50:26;;;;;;;3.37;2.37;;;30.00;33.40;;;;;;4995380;28;20279;-42
2022/08/03 07:52:54;;;;;;;3.40;2.47;;;30.00;33.50;;;;;;4995035;28;20410;-42
2022/08/03 07:55:23;;;;;;;4.10;3.23;;;30.10;33.40;;;;;;4995190;28;20458;-42
2022/08/03 07:58:06;;;;;;;3.00;2.27;;;30.20;33.60;;;;;;4995096;28;20411;-44
2022/08/03 08:00:33;;;;;;;3.43;2.50;;;30.30;33.30;;;;;;4995140;28;20412;-42
2022/08/03 08:02:59;;;;;;;3.70;2.20;;;30.40;33.60;;;;;;4995473;28;20406;-42
2022/08/03 08:05:25;;;;;;;3.47;2.27;;;30.50;33.70;;;;;;4994876;28;20431;-42
2022/08/03 08:07:51;;;;;;;4.20;2.90;;;30.60;33.40;;;;;;4995026;28;20431;-42
2022/08/03 08:10:17;;;;;;;3.17;2.57;;;30.80;34.00;;;;;;4994985;28;20407;-43
2022/08/03 08:12:42;;;;;;;3.07;2.50;;;31.00;34.70;;;;;;4994962;28;20506;-43
2022/08/03 08:15:08;;;;;;;4.00;2.83;;;31.10;34.50;;;;;;4994502;28;20459;-43
2022/08/03 08:17:52;;;;;;;3.67;2.87;;;31.20;33.60;;;;;;4994654;28;20171;-43
2022/08/03 08:20:24;;;;;;;3.93;2.73;;;31.30;31.70;;;;;;4995194;28;20398;-43
2022/08/03 08:22:50;;;;;;;3.67;2.87;;;31.40;30.60;;;;;;4994845;28;20407;-43
2022/08/03 08:25:16;;;;;;;4.07;2.40;;;31.30;30.90;;;;;;4994777;28;20430;-43
2022/08/03 08:27:44;;;;;;;3.20;2.33;;;31.50;32.20;;;;;;4994849;28;20406;-43
2022/08/03 08:30:11;;;;;;;3.00;2.23;;;31.50;30.90;;;;;;4994629;28;20547;-43
2022/08/03 08:32:36;;;;;;;2.83;1.87;;;31.60;30.70;;;;;;4994530;28;20413;-42
2022/08/03 08:35:06;;;;;;;3.90;2.50;;;31.70;32.10;;;;;;4994514;28;20532;-43
2022/08/03 08:37:32;;;;;;;4.77;2.07;;;31.90;30.40;;;;;;4994574;28;20176;-43
2022/08/03 08:39:58;;;;;;;3.60;2.37;;;31.90;31.30;;;;;;4994835;28;20424;-42
2022/08/03 08:42:24;;;;;;;3.53;2.47;;;32.10;31.60;;;;;;4994460;28;20398;-43
2022/08/03 08:44:50;;;;;;;4.27;2.67;;;32.20;32.00;;;;;;4994550;28;20485;-44
2022/08/03 08:47:20;;;;;;;3.10;2.63;;;32.40;32.20;;;;;;4994390;28;20258;-42
2022/08/03 08:49:51;;;;;;;2.30;1.73;;;32.50;31.40;;;;;;4994363;28;20928;-42
2022/08/03 08:52:22;;;;;;;3.80;2.27;;;32.60;31.30;;;;;;4994163;28;20411;-43
2022/08/03 08:54:49;;;;;;;3.67;2.47;;;32.70;30.80;;;;;;4994012;28;20449;-43
2022/08/03 08:57:16;;;;;;;3.20;2.67;;;32.70;31.90;;;;;;4993942;28;20431;-42
2022/08/03 08:59:43;;;;;;;3.13;2.17;;;32.90;31.50;;;;;;4993976;28;20960;-42
2022/08/03 09:02:09;;;;;;;3.40;2.47;;;32.90;31.70;;;;;;4993898;28;20405;-43
2022/08/03 09:04:38;;;;;;;3.07;2.00;;;33.00;31.30;;;;;;4994137;28;20473;-43
2022/08/03 09:07:04;;;;;;;2.40;1.77;;;33.10;31.70;;;;;;4993847;28;20521;-42
2022/08/03 09:09:30;;;;;;;3.73;2.00;;;33.20;31.20;;;;;;4994020;28;20836;-43
2022/08/03 09:11:56;;;;;;;3.00;1.97;;;33.20;31.10;;;;;;4993778;28;20976;-43
2022/08/03 09:14:22;;;;;;;3.13;2.33;;;33.20;30.90;;;;;;4993709;28;20442;-42
2022/08/03 09:17:00;;;;;;;3.47;2.17;;;33.30;31.30;;;;;;4993385;28;20245;-43
2022/08/03 09:19:27;;;;;;;4.07;2.07;;;33.40;31.50;;;;;;4993819;28;20477;-43
2022/08/03 09:22:15;;;;;;;3.23;2.00;;;33.40;31.50;;;;;;4993837;28;20410;-42
2022/08/03 09:25:02;;;;;;;3.60;2.37;;;33.60;31.30;;;;;;4993700;28;20771;-43
2022/08/03 09:27:29;;;;;;;6.00;2.50;;;33.70;30.20;;;;;;4993579;28;20401;-43
2022/08/03 09:29:56;;;;;;;3.00;1.87;;;33.60;30.60;;;;;;4993555;28;20419;-43
2022/08/03 09:32:23;;;;;;;3.37;2.37;;;33.70;30.40;;;;;;4993642;28;20410;-43
2022/08/03 09:34:51;;;;;;;3.43;2.20;;;33.80;29.20;;;;;;4993172;28;20450;-43
2022/08/03 09:37:19;;;;;;;2.30;1.60;;;33.90;29.60;;;;;;4992902;28;20934;-42
2022/08/03 09:39:46;;;;;;;2.70;2.20;;;33.90;28.70;;;;;;4993287;28;20857;-43
2022/08/03 09:42:17;;;;;;;3.17;2.10;;;33.90;28.70;;;;;;4993161;28;20453;-43
2022/08/03 09:44:49;;;;;;;5.60;2.83;;;34.00;29.40;;;;;;4993489;28;20415;-43
2022/08/03 09:47:32;;;;;;;2.90;1.93;;;34.10;29.00;;;;;;4992876;28;20439;-44
2022/08/03 09:50:06;;;;;;;2.77;1.97;;;34.20;29.30;;;;;;4993339;28;20766;-43
2022/08/03 09:52:37;;;;;;;2.80;1.87;;;34.30;28.50;;;;;;4993228;28;20456;-43
2022/08/03 09:55:11;;;;;;;2.90;1.90;;;34.40;28.10;;;;;;4992901;28;20458;-43
2022/08/03 09:57:39;;;;;;;3.10;2.17;;;34.50;25.50;;;;;;4993084;28;20407;-42
2022/08/03 10:00:14;;;;;;;4.57;2.23;;;34.50;26.40;;;;;;4993093;28;20481;-42
2022/08/03 10:02:42;;;;;;;3.37;2.30;;;34.60;25.80;;;;;;4993218;28;20413;-43
2022/08/03 10:05:10;;;;;;;2.57;1.77;;;34.60;26.30;;;;;;4993066;28;20443;-42
2022/08/03 10:07:45;;;;;;;11.07;1.97;;;34.70;25.80;;;;;;4992871;28;20419;-43
2022/08/03 10:10:12;;;;;;;3.53;2.00;;;34.80;25.10;;;;;;4992971;28;20407;-42
2022/08/03 10:12:39;;;;;;;2.90;2.20;;;34.90;25.10;;;;;;4992909;28;20418;-43
2022/08/03 10:15:06;;;;;;;4.20;1.90;;;34.90;25.10;;;;;;4992857;28;20814;-43
2022/08/03 10:17:32;;;;;;;2.70;2.07;;;35.00;25.20;;;;;;4992726;28;20422;-43
2022/08/03 10:19:59;;;;;;;3.20;1.97;;;35.10;25.70;;;;;;4993044;28;20507;-43
2022/08/03 10:22:33;;;;;;;2.90;1.60;;;35.10;24.70;;;;;;4993263;28;20409;-43
2022/08/03 10:25:06;;;;;;;2.80;2.00;;;35.20;25.00;;;;;;4992776;28;20945;-43
2022/08/03 10:27:41;;;;;;;2.60;2.03;;;35.30;25.00;;;;;;4992897;28;20406;-43
2022/08/03 10:30:09;;;;;;;3.00;2.17;;;35.40;23.50;;;;;;4992844;28;20416;-43
2022/08/03 10:32:51;;;;;;;3.53;1.93;;;35.50;24.20;;;;;;4993565;28;20435;-43
2022/08/03 10:35:19;;;;;;;2.80;2.07;;;35.70;24.40;;;;;;4992666;28;20640;-42
2022/08/03 10:38:05;;;;;;;2.73;2.20;;;35.80;24.20;;;;;;4992469;28;20414;-42
2022/08/03 10:40:32;;;;;;;3.13;2.23;;;35.90;23.60;;;;;;4992977;28;20413;-42
2022/08/03 10:43:12;;;;;;;2.80;1.87;;;36.10;24.90;;;;;;4992672;28;20909;-43
2022/08/03 10:45:42;;;;;;;6.33;2.23;;;36.10;24.80;;;;;;4992737;28;20850;-43
2022/08/03 10:48:09;;;;;;;3.30;2.20;;;36.10;24.60;;;;;;4992638;28;20411;-42
2022/08/03 10:50:35;;;;;;;2.03;1.50;;;36.10;23.00;;;;;;4993092;28;20434;-43
2022/08/03 10:53:06;;;;;;;3.40;2.20;;;36.10;23.60;;;;;;4993079;28;20821;-43
2022/08/03 10:58:54;;;;;;;2.70;1.90;;;36.30;23.80;;;;;;4992882;28;20506;-44
2022/08/03 11:01:53;;;;;;;3.23;2.10;;;36.40;22.80;;;;;;4970051;28;20437;-44
2022/08/03 11:04:23;;;;;;;4.03;2.10;;;36.50;23.40;;;;;;4992793;28;20413;-42
2022/08/03 11:07:14;;;;;;;3.30;2.03;;;36.60;23.60;;;;;;4992081;28;20473;-43
2022/08/03 11:09:51;;;;;;;3.00;1.87;;;36.80;23.70;;;;;;4992399;28;20910;-43
2022/08/03 11:12:29;;;;;;;2.40;1.77;;;37.00;24.40;;;;;;4992467;28;20401;-43
2022/08/03 11:14:56;;;;;;;3.40;2.10;;;37.20;23.90;;;;;;4992142;28;20437;-43
2022/08/03 11:17:23;;;;;;;5.70;2.13;;;37.20;22.80;;;;;;4995547;28;20819;-43
2022/08/03 11:19:51;;;;;;;2.97;2.17;;;37.20;23.10;;;;;;4995809;28;20910;-43
2022/08/03 11:22:18;;;;;;;3.27;2.07;;;37.30;22.90;;;;;;4995801;28;20411;-43
2022/08/03 11:24:50;;;;;;;3.00;2.07;;;37.30;23.20;;;;;;4995837;28;20410;-43
2022/08/03 11:27:32;;;;;;;3.10;2.10;;;37.40;22.30;;;;;;4995476;28;20429;-43
2022/08/03 11:30:21;;;;;;;2.90;2.07;;;37.40;20.80;;;;;;4995935;28;20407;-43
2022/08/03 11:32:47;;;;;;;2.90;1.93;;;37.40;21.00;;;;;;4995858;28;20390;-44
2022/08/03 11:35:28;;;;;;;3.57;2.10;;;37.50;21.30;;;;;;4995593;28;21113;-44
2022/08/03 11:37:55;;;;;;;2.63;1.93;;;37.50;21.40;;;;;;4995472;28;20218;-44
2022/08/03 11:40:41;;;;;;;2.87;1.93;;;37.60;22.00;;;;;;4995709;28;20402;-42
2022/08/03 11:43:28;;;;;;;3.03;2.50;;;37.60;21.80;;;;;;4995573;28;20489;-43
2022/08/03 11:46:17;;;;;;;6.87;2.30;;;37.70;22.40;;;;;;4987845;28;20469;-43
2022/08/03 11:48:46;;;;;;;4.30;1.83;;;37.80;21.70;;;;;;4995586;28;20763;-44
2022/08/03 11:51:26;;;;;;;2.30;1.73;;;37.70;22.00;;;;;;4995422;28;20427;-43
2022/08/03 11:54:10;;;;;;;2.23;1.53;;;37.70;22.30;;;;;;4995264;28;20450;-43
2022/08/03 11:56:47;;;;;;;2.40;1.80;;;37.80;21.80;;;;;;4995154;28;20430;-44
2022/08/03 11:59:14;;;;;;;2.60;1.87;;;37.90;21.90;;;;;;4995140;28;20403;-43
2022/08/03 12:01:40;;;;;;;3.60;2.03;;;38.00;22.60;;;;;;4995083;28;20762;-43
2022/08/03 12:04:06;;;;;;;2.60;1.90;;;38.10;22.20;;;;;;4994969;28;20417;-44
2022/08/03 12:06:53;;;;;;;2.97;1.70;;;38.10;22.30;;;;;;4994978;28;20256;-43
2022/08/03 12:09:19;;;;;;;3.50;2.10;;;38.10;22.20;;;;;;4994797;28;20920;-44
2022/08/03 12:11:52;;;;;;;3.30;2.00;;;38.10;22.00;;;;;;4995110;28;20418;-43
2022/08/03 12:14:18;;;;;;;2.87;2.03;;;38.10;21.00;;;;;;4994925;28;20836;-43
2022/08/03 12:16:48;;;;;;;3.07;2.27;;;38.00;20.50;;;;;;4994383;28;21016;-43
2022/08/03 12:19:14;;;;;;;2.37;1.50;;;37.90;21.00;;;;;;4994832;28;20417;-44
2022/08/03 12:21:47;;;;;;;2.40;1.77;;;37.90;20.80;;;;;;4994712;28;20493;-43
2022/08/03 12:24:13;;;;;;;2.30;1.63;;;38.00;21.20;;;;;;4994602;28;20406;-43
2022/08/03 12:26:47;;;;;;;4.07;2.27;;;38.00;21.00;;;;;;4994033;28;20434;-43
2022/08/03 12:29:21;;;;;;;4.00;2.40;;;38.10;20.30;;;;;;4994695;28;20405;-44
2022/08/03 12:31:49;;;;;;;3.43;1.90;;;38.10;20.70;;;;;;4994571;28;20418;-44
2022/08/03 12:34:15;;;;;;;2.60;1.63;;;38.20;21.30;;;;;;4994613;28;20451;-44
2022/08/03 12:36:58;;;;;;;2.70;1.90;;;38.40;21.30;;;;;;4994387;28;20513;-44
2022/08/03 12:39:27;;;;;;;3.10;2.20;;;38.60;21.10;;;;;;4994360;28;20399;-43
2022/08/03 12:41:54;;;;;;;2.30;1.60;;;37.50;19.60;;;;;;4994477;28;20418;-43
2022/08/03 12:44:31;;;;;;;2.50;1.70;;;38.50;20.00;;;;;;4994560;28;20402;-43
2022/08/03 12:46:57;;;;;;;3.20;2.17;;;38.60;20.80;;;;;;4994081;28;20930;-43
2022/08/03 12:49:23;;;;;;;2.90;2.10;;;38.60;20.90;;;;;;4994506;28;20425;-43
2022/08/03 12:51:49;;;;;;;3.27;1.97;;;38.60;20.60;;;;;;4994209;28;20774;-43
2022/08/03 12:54:16;;;;;;;2.97;1.60;;;38.70;20.70;;;;;;4994136;28;20198;-44
2022/08/03 12:56:59;;;;;;;2.27;1.67;;;38.80;20.20;;;;;;4993772;28;20671;-42
2022/08/03 12:59:27;;;;;;;3.40;2.30;;;38.90;19.80;;;;;;4994257;28;20560;-44
2022/08/03 13:01:53;;;;;;;3.13;2.17;;;39.00;20.90;;;;;;4994024;28;20407;-43
2022/08/03 13:04:33;;;;;;;3.97;2.50;;;39.10;20.60;;;;;;4994191;28;20425;-43
2022/08/03 13:07:04;;;;;;;2.07;1.43;;;39.20;20.50;;;;;;4993586;28;20434;-43